createdAt,value
2022-09-13T00:01:11.998Z,13.83
2022-09-13T00:04:04.839Z,13.72
2022-09-13T00:06:34.452Z,13.66
2022-09-13T00:09:02.898Z,13.61
2022-09-13T00:11:32.365Z,13.24
2022-09-13T00:14:00.814Z,13.48
2022-09-13T00:16:30.662Z,13.36
2022-09-13T00:19:00.741Z,13.39
2022-09-13T00:21:29.062Z,13.49
2022-09-13T00:23:58.622Z,13.30
2022-09-13T00:26:29.025Z,13.23
2022-09-13T00:28:59.630Z,13.22
2022-09-13T00:31:29.809Z,12.97
2022-09-13T00:34:00.975Z,13.10
2022-09-13T00:36:29.533Z,13.00
2022-09-13T00:39:01.041Z,12.95
2022-09-13T00:41:29.245Z,12.98
2022-09-13T00:44:00.046Z,12.95
2022-09-13T00:46:36.010Z,12.23
2022-09-13T00:49:13.722Z,13.02
2022-09-13T00:51:46.500Z,13.01
2022-09-13T00:54:19.411Z,12.95
2022-09-13T00:56:52.866Z,13.13
2022-09-13T00:59:27.684Z,13.02
2022-09-13T01:01:58.739Z,13.06
2022-09-13T01:04:29.648Z,13.10
2022-09-13T01:07:02.466Z,13.06
2022-09-13T01:09:36.656Z,13.09
2022-09-13T01:12:14.706Z,12.86
2022-09-13T01:14:44.850Z,12.85
2022-09-13T01:17:13.421Z,12.92
2022-09-13T01:19:41.731Z,12.76
2022-09-13T01:22:52.449Z,12.78
2022-09-13T01:25:52.162Z,12.63
2022-09-13T01:28:42.468Z,12.48
2022-09-13T01:31:21.468Z,12.57
2022-09-13T01:34:18.066Z,12.29
2022-09-13T01:37:06.126Z,10.55
2022-09-13T01:39:59.974Z,12.26
2022-09-13T01:42:39.308Z,12.28
2022-09-13T01:45:23.326Z,12.40
2022-09-13T01:47:59.441Z,12.38
2022-09-13T01:50:40.320Z,12.33
2022-09-13T01:53:21.850Z,12.31
2022-09-13T01:55:56.609Z,12.35
2022-09-13T01:58:29.178Z,12.35
2022-09-13T02:01:08.825Z,12.94
2022-09-13T02:03:44.636Z,12.25
2022-09-13T02:06:23.545Z,12.35
2022-09-13T02:08:55.883Z,12.27
2022-09-13T02:11:25.282Z,12.32
2022-09-13T02:14:01.084Z,12.28
2022-09-13T02:16:35.085Z,12.23
2022-09-13T02:19:10.816Z,11.78
2022-09-13T02:21:42.627Z,12.01
2022-09-13T02:24:17.619Z,12.07
2022-09-13T02:26:49.374Z,11.26
2022-09-13T02:29:21.220Z,12.05
2022-09-13T02:31:55.798Z,12.00
2022-09-13T02:34:32.790Z,11.86
2022-09-13T02:37:04.099Z,11.83
2022-09-13T02:39:34.686Z,11.78
2022-09-13T02:42:12.584Z,11.85
2022-09-13T02:44:44.581Z,11.86
2022-09-13T02:47:32.331Z,11.79
2022-09-13T02:50:20.549Z,11.39
2022-09-13T02:52:55.162Z,11.97
2022-09-13T02:55:31.040Z,11.98
2022-09-13T02:58:05.951Z,11.96
2022-09-13T03:00:34.431Z,11.91
2022-09-13T03:03:08.118Z,11.85
2022-09-13T03:05:37.954Z,11.89
2022-09-13T03:08:07.541Z,11.80
2022-09-13T03:10:49.489Z,11.62
2022-09-13T03:14:16.763Z,11.68
2022-09-13T03:17:06.464Z,11.69
2022-09-13T03:19:49.766Z,11.75
2022-09-13T03:22:42.253Z,11.57
2022-09-13T03:25:22.494Z,11.40
2022-09-13T03:28:02.759Z,11.42
2022-09-13T03:30:35.307Z,11.24
2022-09-13T03:33:12.822Z,11.28
2022-09-13T03:35:45.982Z,11.12
2022-09-13T03:38:20.130Z,11.14
2022-09-13T03:40:50.781Z,11.15
2022-09-13T03:43:29.554Z,11.22
2022-09-13T03:46:01.221Z,11.21
2022-09-13T03:48:31.275Z,11.23
2022-09-13T03:50:59.528Z,11.21
2022-09-13T03:53:31.594Z,11.17
2022-09-13T03:55:59.736Z,11.32
2022-09-13T03:58:28.696Z,11.38
2022-09-13T04:00:57.455Z,11.29
2022-09-13T04:03:26.014Z,11.24
2022-09-13T04:05:54.186Z,11.26
2022-09-13T04:08:22.721Z,11.01
2022-09-13T04:10:53.073Z,10.98
2022-09-13T04:13:22.972Z,10.99
2022-09-13T04:15:51.271Z,10.87
2022-09-13T04:18:19.779Z,10.80
2022-09-13T04:20:55.093Z,10.89
2022-09-13T04:23:23.312Z,10.88
2022-09-13T04:25:53.396Z,10.98
2022-09-13T04:28:24.231Z,10.81
2022-09-13T04:30:52.463Z,10.83
2022-09-13T04:33:20.663Z,10.68
2022-09-13T04:35:48.804Z,10.58
2022-09-13T04:38:17.319Z,10.62
2022-09-13T04:40:45.453Z,10.57
2022-09-13T04:43:15.413Z,10.51
2022-09-13T04:45:43.609Z,10.51
2022-09-13T04:48:11.921Z,10.44
2022-09-13T04:50:40.070Z,10.46
2022-09-13T04:53:08.242Z,10.39
2022-09-13T04:55:36.808Z,10.33
2022-09-13T04:58:05.196Z,10.39
2022-09-13T05:00:34.904Z,10.50
2022-09-13T05:03:03.114Z,10.55
2022-09-13T05:05:32.521Z,10.65
2022-09-13T05:08:00.646Z,10.61
2022-09-13T05:10:28.788Z,10.61
2022-09-13T05:12:56.930Z,10.72
2022-09-13T05:15:25.065Z,11.39
2022-09-13T05:17:54.544Z,10.85
2022-09-13T05:20:22.725Z,10.70
2022-09-13T05:22:50.878Z,10.76
2022-09-13T05:25:21.131Z,10.69
2022-09-13T05:27:52.332Z,10.74
2022-09-13T05:30:20.734Z,10.95
2022-09-13T05:32:48.914Z,10.96
2022-09-13T05:35:18.389Z,11.08
2022-09-13T05:37:46.511Z,11.25
2022-09-13T05:40:14.802Z,11.30
2022-09-13T05:42:42.951Z,12.10
2022-09-13T05:45:11.455Z,11.48
2022-09-13T05:47:39.785Z,11.63
2022-09-13T05:50:15.418Z,11.56
2022-09-13T05:52:54.771Z,11.90
2022-09-13T05:55:23.429Z,11.83
2022-09-13T05:57:51.847Z,12.06
2022-09-13T06:00:20.047Z,11.92
2022-09-13T06:02:48.223Z,11.97
2022-09-13T06:05:16.509Z,11.99
2022-09-13T06:07:44.731Z,12.07
2022-09-13T06:10:14.290Z,12.11
2022-09-13T06:12:42.504Z,12.07
2022-09-13T06:15:11.443Z,12.20
2022-09-13T06:17:39.711Z,12.17
2022-09-13T06:20:10.588Z,12.37
2022-09-13T06:22:39.175Z,12.33
2022-09-13T06:25:09.460Z,12.46
2022-09-13T06:27:38.952Z,12.51
2022-09-13T06:30:12.003Z,12.51
2022-09-13T06:32:40.954Z,12.54
2022-09-13T06:35:10.297Z,12.65
2022-09-13T06:37:38.938Z,12.85
2022-09-13T06:40:08.042Z,12.91
2022-09-13T06:42:37.817Z,13.00
2022-09-13T06:45:07.654Z,13.06
2022-09-13T06:47:35.800Z,13.21
2022-09-13T06:50:04.001Z,13.27
2022-09-13T06:52:32.641Z,13.37
2022-09-13T06:55:00.855Z,13.39
2022-09-13T06:57:32.020Z,13.41
2022-09-13T07:00:04.527Z,13.45
2022-09-13T07:02:32.752Z,13.47
2022-09-13T07:05:00.944Z,13.68
2022-09-13T07:07:29.080Z,13.81
2022-09-13T07:09:57.300Z,13.87
2022-09-13T07:12:25.396Z,13.99
2022-09-13T07:14:53.774Z,13.68
2022-09-13T07:17:23.279Z,14.25
2022-09-13T07:19:51.438Z,14.36
2022-09-13T07:22:19.570Z,14.39
2022-09-13T07:24:47.706Z,14.57
2022-09-13T07:27:16.791Z,14.91
2022-09-13T07:29:45.055Z,15.00
2022-09-13T07:32:13.222Z,15.25
2022-09-13T07:34:45.606Z,15.32
2022-09-13T07:37:13.794Z,15.49
2022-09-13T07:39:41.978Z,15.61
2022-09-13T07:42:10.114Z,15.72
2022-09-13T07:44:39.893Z,15.87
2022-09-13T07:47:08.221Z,16.12
2022-09-13T07:49:36.387Z,16.26
2022-09-13T07:52:06.005Z,16.40
2022-09-13T07:54:35.509Z,16.62
2022-09-13T07:57:04.056Z,16.91
2022-09-13T07:59:32.214Z,17.00
2022-09-13T08:02:00.382Z,17.26
2022-09-13T08:04:29.937Z,17.19
2022-09-13T08:07:00.541Z,17.36
2022-09-13T08:09:30.102Z,17.34
2022-09-13T08:11:58.267Z,17.61
2022-09-13T08:14:26.415Z,17.58
2022-09-13T08:16:57.775Z,17.72
2022-09-13T08:19:26.045Z,17.75
2022-09-13T08:21:54.239Z,17.80
2022-09-13T08:24:23.664Z,17.84
2022-09-13T08:26:56.292Z,17.94
2022-09-13T08:29:25.338Z,18.18
2022-09-13T08:31:53.718Z,18.38
2022-09-13T08:34:22.224Z,18.65
2022-09-13T08:36:50.364Z,18.56
2022-09-13T08:39:18.602Z,18.36
2022-09-13T08:42:07.062Z,18.67
2022-09-13T08:44:37.586Z,18.89
2022-09-13T08:47:28.409Z,18.69
2022-09-13T08:50:07.631Z,18.83
2022-09-13T08:52:45.510Z,18.90
2022-09-13T08:55:26.646Z,19.15
2022-09-13T08:58:02.539Z,19.21
2022-09-13T09:00:38.254Z,19.14
2022-09-13T09:03:23.249Z,19.20
2022-09-13T09:05:54.311Z,19.23
2022-09-13T09:08:33.911Z,19.46
2022-09-13T09:11:07.616Z,19.59
2022-09-13T09:13:46.534Z,19.57
2022-09-13T09:16:29.762Z,19.69
2022-09-13T09:19:01.108Z,19.83
2022-09-13T09:21:29.371Z,20.01
2022-09-13T09:23:59.322Z,20.01
2022-09-13T09:26:31.889Z,20.21
2022-09-13T09:29:20.683Z,20.23
2022-09-13T09:32:09.161Z,20.26
2022-09-13T09:34:52.403Z,20.52
2022-09-13T09:37:24.938Z,20.80
2022-09-13T09:39:54.625Z,20.74
2022-09-13T09:42:28.279Z,20.82
2022-09-13T09:45:03.746Z,20.89
2022-09-13T09:47:42.771Z,20.75
2022-09-13T09:50:15.068Z,20.31
2022-09-13T09:52:50.703Z,20.99
2022-09-13T09:55:28.517Z,21.04
2022-09-13T09:58:00.492Z,21.08
2022-09-13T10:00:34.117Z,21.12
2022-09-13T10:03:09.051Z,20.99
2022-09-13T10:05:37.686Z,20.99
2022-09-13T10:08:08.376Z,20.90
2022-09-13T10:10:42.630Z,20.57
2022-09-13T10:13:17.461Z,21.15
2022-09-13T10:15:58.143Z,21.19
2022-09-13T10:18:45.095Z,21.29
2022-09-13T10:21:25.739Z,21.46
2022-09-13T10:24:17.429Z,21.53
2022-09-13T10:26:45.770Z,21.72
2022-09-13T10:29:17.779Z,21.96
2022-09-13T10:31:53.391Z,21.98
2022-09-13T10:34:24.489Z,22.11
2022-09-13T10:36:58.131Z,22.05
2022-09-13T10:39:29.633Z,22.10
2022-09-13T10:42:02.461Z,22.00
2022-09-13T10:44:38.201Z,22.07
2022-09-13T10:47:13.311Z,22.08
2022-09-13T10:49:48.108Z,22.11
2022-09-13T10:52:44.459Z,22.16
2022-09-13T10:55:36.395Z,22.48
2022-09-13T10:58:18.207Z,22.47
2022-09-13T11:01:14.618Z,22.51
2022-09-13T11:04:37.607Z,22.71
2022-09-13T11:07:36.708Z,22.56
2022-09-13T11:10:15.026Z,22.78
2022-09-13T11:12:53.362Z,22.79
2022-09-13T11:15:39.661Z,22.93
2022-09-13T11:18:51.347Z,23.20
2022-09-13T11:21:36.462Z,23.41
2022-09-13T11:24:33.226Z,23.62
2022-09-13T11:27:07.590Z,23.36
2022-09-13T11:30:11.797Z,23.34
2022-09-13T11:32:59.989Z,23.16
2022-09-13T11:35:50.550Z,23.30
2022-09-13T11:38:36.892Z,23.36
2022-09-13T11:41:19.992Z,23.59
2022-09-13T11:44:08.323Z,23.77
2022-09-13T11:46:44.140Z,23.76
2022-09-13T11:49:49.490Z,24.04
2022-09-13T11:52:27.720Z,23.84
2022-09-13T11:55:12.139Z,23.89
2022-09-13T11:57:45.447Z,23.60
2022-09-13T12:00:22.707Z,24.09
2022-09-13T12:03:01.293Z,24.07
2022-09-13T12:06:02.920Z,23.99
2022-09-13T12:08:34.288Z,24.05
2022-09-13T12:11:12.851Z,23.91
2022-09-13T12:13:49.418Z,24.25
2022-09-13T12:16:25.013Z,24.37
2022-09-13T12:18:57.372Z,24.64
2022-09-13T12:21:31.052Z,24.88
2022-09-13T12:24:06.721Z,24.86
2022-09-13T12:26:43.077Z,24.64
2022-09-13T12:29:17.939Z,24.47
2022-09-13T12:31:46.160Z,24.34
2022-09-13T12:34:23.857Z,24.56
2022-09-13T12:37:27.809Z,24.52
2022-09-13T12:40:20.356Z,24.49
2022-09-13T12:43:19.766Z,24.54
2022-09-13T12:46:23.343Z,24.46
2022-09-13T12:49:27.680Z,24.58
2022-09-13T12:52:15.599Z,24.31
2022-09-13T12:55:45.347Z,24.51
2022-09-13T12:58:31.294Z,24.41
2022-09-13T13:01:19.350Z,24.36
2022-09-13T13:03:54.533Z,24.39
2022-09-13T13:06:33.432Z,24.04
2022-09-13T13:09:06.613Z,24.03
2022-09-13T13:11:46.081Z,24.04
2022-09-13T13:14:53.686Z,23.91
2022-09-13T13:17:47.204Z,23.84
2022-09-13T13:21:04.356Z,23.85
2022-09-13T13:23:35.371Z,23.77
2022-09-13T13:26:09.277Z,23.80
2022-09-13T13:29:18.454Z,24.00
2022-09-13T13:32:14.612Z,24.50
2022-09-13T13:34:46.930Z,23.86
2022-09-13T13:37:42.284Z,23.81
2022-09-13T13:40:26.968Z,23.75
2022-09-13T13:43:30.816Z,23.81
2022-09-13T13:46:33.570Z,23.68
2022-09-13T13:49:46.494Z,23.75
2022-09-13T13:52:39.701Z,23.68
2022-09-13T13:55:31.447Z,23.66
2022-09-13T13:58:03.370Z,23.69
2022-09-13T14:00:34.554Z,23.73
2022-09-13T14:03:17.799Z,23.82
2022-09-13T14:05:55.950Z,23.55
2022-09-13T14:08:43.891Z,23.52
2022-09-13T14:11:26.331Z,23.59
2022-09-13T14:14:11.996Z,23.35
2022-09-13T14:16:57.507Z,23.32
2022-09-13T14:19:28.358Z,23.24
2022-09-13T14:22:14.329Z,23.05
2022-09-13T14:24:46.433Z,23.22
2022-09-13T14:27:21.824Z,23.06
2022-09-13T14:29:53.127Z,23.13
2022-09-13T14:32:24.278Z,23.11
2022-09-13T14:34:58.342Z,23.13
2022-09-13T14:37:31.600Z,22.96
2022-09-13T14:40:03.251Z,23.13
2022-09-13T14:42:41.447Z,23.11
2022-09-13T14:45:15.577Z,22.99
2022-09-13T14:47:54.002Z,22.85
2022-09-13T14:50:29.732Z,22.96
2022-09-13T14:53:02.570Z,22.98
2022-09-13T14:55:34.466Z,22.94
2022-09-13T14:58:06.669Z,23.13
2022-09-13T15:00:39.332Z,23.15
2022-09-13T15:03:16.918Z,23.01
2022-09-13T15:05:53.970Z,23.72
2022-09-13T15:08:49.555Z,23.26
2022-09-13T15:11:29.680Z,23.22
2022-09-13T15:14:27.848Z,23.44
2022-09-13T15:17:01.479Z,23.12
2022-09-13T15:19:36.761Z,23.64
2022-09-13T15:22:19.073Z,23.70
2022-09-13T15:24:52.579Z,23.16
2022-09-13T15:27:29.842Z,23.53
2022-09-13T15:30:01.252Z,23.59
2022-09-13T15:32:35.692Z,23.55
2022-09-13T15:35:03.923Z,23.63
2022-09-13T15:37:36.267Z,23.63
2022-09-13T15:40:17.541Z,23.62
2022-09-13T15:42:50.268Z,23.60
2022-09-13T15:45:20.471Z,23.56
2022-09-13T15:47:50.560Z,23.48
2022-09-13T15:50:28.264Z,23.57
2022-09-13T15:52:56.991Z,23.57
2022-09-13T15:55:27.872Z,23.35
2022-09-13T15:57:56.561Z,23.54
2022-09-13T16:00:27.103Z,22.65
2022-09-13T16:02:55.317Z,23.45
2022-09-13T16:05:23.945Z,23.35
2022-09-13T16:07:54.034Z,23.27
2022-09-13T16:10:24.173Z,23.19
2022-09-13T16:12:54.788Z,23.19
2022-09-13T16:15:22.938Z,23.07
2022-09-13T16:17:51.025Z,23.03
2022-09-13T16:20:19.645Z,22.96
2022-09-13T16:22:48.347Z,22.75
2022-09-13T16:25:17.337Z,22.86
2022-09-13T16:27:45.756Z,22.82
2022-09-13T16:30:18.968Z,22.66
2022-09-13T16:32:47.381Z,22.70
2022-09-13T16:35:17.042Z,22.68
2022-09-13T16:37:46.322Z,22.60
2022-09-13T16:40:14.554Z,22.47
2022-09-13T16:42:42.742Z,22.31
2022-09-13T16:45:11.906Z,22.12
2022-09-13T16:47:42.351Z,22.13
2022-09-13T16:50:11.637Z,22.02
2022-09-13T16:52:39.886Z,21.85
2022-09-13T16:55:09.657Z,21.90
2022-09-13T16:57:38.526Z,21.83
2022-09-13T17:00:11.415Z,21.60
2022-09-13T17:02:41.743Z,21.78
2022-09-13T17:05:11.171Z,21.74
2022-09-13T17:07:39.595Z,21.85
2022-09-13T17:10:10.122Z,21.65
2022-09-13T17:12:38.285Z,21.79
2022-09-13T17:15:08.131Z,20.88
2022-09-13T17:17:37.025Z,21.52
2022-09-13T17:20:11.973Z,21.29
2022-09-13T17:22:41.831Z,21.21
2022-09-13T17:25:13.663Z,21.21
2022-09-13T17:27:42.139Z,21.17
2022-09-13T17:30:12.508Z,21.26
2022-09-13T17:32:41.049Z,21.20
2022-09-13T17:35:11.819Z,21.09
2022-09-13T17:37:39.974Z,21.13
2022-09-13T17:40:09.258Z,20.92
2022-09-13T17:42:37.483Z,20.93
2022-09-13T17:45:06.784Z,20.90
2022-09-13T17:47:35.032Z,20.86
2022-09-13T17:50:03.180Z,20.65
2022-09-13T17:52:34.931Z,20.67
2022-09-13T17:55:03.584Z,20.64
2022-09-13T17:57:32.214Z,20.61
2022-09-13T18:00:00.618Z,20.74
2022-09-13T18:02:29.544Z,20.69
2022-09-13T18:04:58.387Z,20.65
2022-09-13T18:07:28.577Z,20.84
2022-09-13T18:09:58.070Z,20.53
2022-09-13T18:12:26.314Z,20.55
2022-09-13T18:14:54.489Z,20.60
2022-09-13T18:17:23.236Z,20.57
2022-09-13T18:19:51.385Z,20.62
2022-09-13T18:22:19.517Z,20.43
2022-09-13T18:24:47.669Z,20.46
2022-09-13T18:27:17.174Z,20.24
2022-09-13T18:29:45.329Z,20.50
2022-09-13T18:32:13.513Z,20.28
2022-09-13T18:34:43.791Z,20.35
2022-09-13T18:37:11.969Z,20.21
2022-09-13T18:39:40.502Z,20.28
2022-09-13T18:42:08.763Z,20.11
2022-09-13T18:44:38.223Z,20.08
2022-09-13T18:47:08.605Z,20.02
2022-09-13T18:49:37.357Z,19.87
2022-09-13T18:52:06.677Z,19.88
2022-09-13T18:54:34.859Z,19.33
2022-09-13T18:57:03.018Z,19.46
2022-09-13T18:59:32.195Z,19.58
2022-09-13T19:02:01.860Z,19.64
2022-09-13T19:04:31.930Z,19.55
2022-09-13T19:07:02.349Z,19.57
2022-09-13T19:09:30.435Z,19.52
2022-09-13T19:11:58.613Z,19.42
2022-09-13T19:14:29.089Z,19.26
2022-09-13T19:17:00.489Z,19.05
2022-09-13T19:19:32.238Z,19.26
2022-09-13T19:22:00.476Z,18.13
2022-09-13T19:24:29.119Z,19.53
2022-09-13T19:26:57.317Z,19.28
2022-09-13T19:29:26.762Z,19.18
2022-09-13T19:31:55.960Z,19.21
2022-09-13T19:34:24.790Z,18.95
2022-09-13T19:36:57.964Z,19.04
2022-09-13T19:39:29.841Z,18.92
2022-09-13T19:41:59.682Z,18.86
2022-09-13T19:44:28.230Z,18.76
2022-09-13T19:47:26.907Z,18.74
2022-09-13T19:49:44.581Z,18.60
2022-09-13T19:52:14.140Z,18.41
2022-09-13T19:54:42.298Z,18.45
2022-09-13T19:57:10.536Z,18.46
2022-09-13T19:59:38.673Z,18.41
2022-09-13T20:02:07.170Z,18.31
2022-09-13T20:04:35.687Z,18.40
2022-09-13T20:07:04.008Z,18.26
2022-09-13T20:09:33.561Z,18.36
2022-09-13T20:12:01.686Z,18.46
2022-09-13T20:14:29.926Z,18.43
2022-09-13T20:16:58.848Z,18.50
2022-09-13T20:19:41.489Z,18.63
2022-09-13T20:22:11.007Z,18.44
2022-09-13T20:24:40.547Z,18.52
2022-09-13T20:27:09.594Z,18.35
2022-09-13T20:29:37.897Z,18.36
2022-09-13T20:32:06.262Z,18.25
2022-09-13T20:34:35.219Z,18.32
2022-09-13T20:37:03.415Z,18.20
2022-09-13T20:39:31.674Z,18.03
2022-09-13T20:42:01.226Z,17.94
2022-09-13T20:44:29.426Z,17.87
2022-09-13T20:46:57.593Z,17.90
2022-09-13T20:49:26.334Z,17.86
2022-09-13T20:51:54.487Z,17.96
2022-09-13T20:54:22.623Z,17.02
2022-09-13T20:56:50.915Z,16.58
2022-09-13T20:59:21.163Z,17.73
2022-09-13T21:01:49.771Z,17.68
2022-09-13T21:04:18.348Z,17.82
2022-09-13T21:07:00.460Z,17.71
2022-09-13T21:09:28.887Z,17.28
2022-09-13T21:11:57.204Z,17.64
2022-09-13T21:14:27.073Z,17.71
2022-09-13T21:16:56.060Z,17.68
2022-09-13T21:19:24.824Z,17.73
2022-09-13T21:21:53.666Z,17.87
2022-09-13T21:24:22.267Z,17.72
2022-09-13T21:26:50.393Z,17.73
2022-09-13T21:29:18.499Z,17.69
2022-09-13T21:31:47.969Z,17.83
2022-09-13T21:34:18.602Z,17.88
2022-09-13T21:36:47.611Z,17.61
2022-09-13T21:39:18.549Z,17.27
2022-09-13T21:41:47.548Z,17.62
2022-09-13T21:44:16.017Z,17.56
2022-09-13T21:46:46.466Z,17.56
2022-09-13T21:49:16.761Z,17.46
2022-09-13T21:51:47.568Z,17.04
2022-09-13T21:54:18.136Z,17.41
2022-09-13T21:56:51.584Z,17.38
2022-09-13T21:59:22.182Z,17.35
2022-09-13T22:01:52.741Z,17.35
2022-09-13T22:04:30.246Z,17.32
2022-09-13T22:07:03.368Z,17.32
2022-09-13T22:09:31.492Z,17.38
2022-09-13T22:12:00.615Z,17.36
2022-09-13T22:14:28.852Z,17.41
2022-09-13T22:16:57.488Z,17.34
2022-09-13T22:19:31.583Z,17.28
2022-09-13T22:22:01.310Z,17.21
2022-09-13T22:24:32.082Z,17.24
2022-09-13T22:27:00.962Z,17.29
2022-09-13T22:29:29.853Z,17.30
2022-09-13T22:31:58.015Z,17.13
2022-09-13T22:34:30.787Z,17.29
2022-09-13T22:37:00.473Z,17.27
2022-09-13T22:39:54.312Z,17.18
2022-09-13T22:42:22.455Z,17.21
2022-09-13T22:44:50.590Z,17.19
2022-09-13T22:47:19.261Z,17.15
2022-09-13T22:49:47.417Z,17.26
2022-09-13T22:52:16.882Z,17.22
2022-09-13T22:54:45.973Z,17.39
2022-09-13T22:57:14.142Z,17.39
2022-09-13T22:59:42.307Z,17.26
2022-09-13T23:02:10.765Z,17.28
2022-09-13T23:04:39.002Z,17.32
2022-09-13T23:07:07.255Z,17.32
2022-09-13T23:09:36.781Z,17.26
2022-09-13T23:12:05.843Z,17.23
2022-09-13T23:14:33.953Z,17.19
2022-09-13T23:17:02.185Z,17.22
2022-09-13T23:19:30.367Z,17.28
2022-09-13T23:21:58.497Z,17.11
2022-09-13T23:24:26.655Z,17.24
2022-09-13T23:26:57.228Z,17.13
2022-09-13T23:29:25.441Z,17.23
2022-09-13T23:31:53.919Z,17.17
2022-09-13T23:34:22.936Z,17.20
2022-09-13T23:36:52.075Z,17.17
2022-09-13T23:39:22.896Z,17.10
2022-09-13T23:41:52.124Z,17.19
2022-09-13T23:44:21.640Z,17.37
2022-09-13T23:46:50.079Z,17.32
2022-09-13T23:49:18.546Z,17.31
2022-09-13T23:51:46.699Z,17.32
2022-09-13T23:54:15.407Z,17.48
2022-09-13T23:56:43.857Z,17.55
2022-09-13T23:59:14.052Z,17.13
